Albury
Weather
Information

and Archive.
Albury Local Internet Skycam This service provided and funded by Albury Local Internet

Help keep our weatherstation running:

Lavington Weatherstation live data - Conditions of Use

Last updated on 07-Dec-2019 at 19:35:09
Temperature
  Currently 23.4 degrees C
  Apparent Temperature ("Wind Chill") is 18.3 degrees C
  Today has ranged from 10.6 at 05:38 to 28.6 at 15:43
  Yesterday ranged from 12.9 at 06:18 to 25.3 at 14:03
Wind
  Now:   18.7kmh, gusting to  24.8kmh from 105 degrees (ESE)
  Hour:  18.8kmh, gusting to  32.0kmh
Rainfall
   0.0mm Midnight to Midnight (ie, yesterday)
   0.0mm Since Midnight (ie, so far today)
   0.0mm 9am yesterday to 9am today
  13.6mm Total this month
Misc items
  Relative humidity is 27%
  Dewpoint is 3.3 deg C
  Estimated Cloudbase is 8200 feet
  Barometric Pressure is 1014.0 mbar
  Solar Insolation: 100 W/m^2
  There should be 810 W/m^2 available to a tracking array
  The sun is 7.1 degrees above the horizon bearing 247.2 degrees.
  UV Index: 0.5 (Low)
Top Solar flares in the last 24 hours

Last 24 hours Temperature Graph (click graph for history)
temperature

Last 24 hours Dynamic Wind display (click image for 4-hour image):
Wind Rose

Current Yarrawonga Weather Radar and Infrared Satellite Images from the BOM.

Hourly summaries in the tables below are cumulative and peak values
for the preceding hour, and instantaneous values at the hour.
So far today, 07-Dec-2019
Time   Barom.  Wind + Gust    Direction   RH   Rain    Temp.  Minimum    Maximum
01:00  1013.0   6.4  12.6kmh  192 (SSW)   45%  0.0mm   15.9  15.7@00:38 16.6@00:51
02:00  1013.0   7.7  13.3kmh  183 ( S )   48%  0.0mm   15.1  15.2@01:59 15.9@01:00
03:00  1013.0   7.5  11.9kmh  177 ( S )   53%  0.0mm   13.6  13.5@02:56 15.3@02:09
04:00  1013.0   8.2  12.6kmh  191 ( S )   58%  0.0mm   12.2  12.2@03:56 13.8@03:14
05:00  1013.0   6.8  11.9kmh  193 (SSW)   63%  0.0mm   11.0  10.8@04:50 12.7@04:06
06:00  1014.0   7.8  14.8kmh  201 (SSW)   64%  0.0mm   11.3  10.6@05:38 11.6@05:14
07:00  1014.0   7.3  14.0kmh  219 ( SW)   64%  0.0mm   11.5  11.1@06:06 11.5@06:58
08:00  1015.0   6.7  11.9kmh  196 (SSW)   57%  0.0mm   14.1  11.5@07:00 14.4@07:55
09:00  1015.0   7.6  14.0kmh  131 ( SE)   48%  0.0mm   16.1  13.4@08:04 16.1@08:35
10:00  1015.0   7.5  14.8kmh  137 ( SE)   39%  0.0mm   19.1  15.6@09:20 19.6@09:50
11:00  1015.0   7.9  15.5kmh  160 (SSE)   29%  0.0mm   23.8  18.1@10:07 24.0@10:56
12:00  1014.0   8.8  19.4kmh  197 (SSW)   26%  0.0mm   24.9  21.0@11:23 24.5@11:58
13:00  1014.0  11.1  22.3kmh  178 ( S )   26%  0.0mm   24.6  22.2@12:19 26.1@12:09
14:00  1013.0  14.0  28.4kmh  182 ( S )   25%  0.0mm   25.3  24.3@13:12 27.5@13:32
15:00  1013.0  15.4  36.0kmh  189 ( S )   22%  0.0mm   25.9  24.4@14:02 26.8@14:51
16:00  1013.0  14.8  33.1kmh  194 (SSW)   23%  0.0mm   26.9  25.1@15:01 28.6@15:43
17:00  1013.0  17.3  38.9kmh  183 ( S )   24%  0.0mm   25.7  25.3@16:29 27.4@16:04
18:00  1013.0  19.4  36.0kmh  187 ( S )   25%  0.0mm   25.3  24.8@17:49 26.1@17:02
19:00  1014.0  19.3  33.1kmh  201 (SSW)   24%  0.0mm   24.4  24.5@18:51 25.8@18:06
19:35  1014.0  18.8  32.0kmh  186 ( S )   27%  0.0mm   23.4  23.4@19:35 24.5@19:01


Summary for yesterday, 06-Dec-2019
Time   Barom.  Wind + Gust    Direction   RH   Rain    Temp.  Minimum    Maximum
01:00  1008.0  10.2  16.9kmh  196 (SSW)   32%  0.0mm   18.8  18.9@00:59 20.2@00:00
02:00  1008.0   8.6  14.8kmh  200 (SSW)   47%  0.0mm   17.0  17.2@01:58 18.8@01:00
03:00  1008.0   7.0  11.2kmh  225 ( SW)   50%  0.0mm   16.5  15.9@02:21 17.0@02:00
04:00  1007.0   8.4  15.5kmh  181 ( S )   56%  0.0mm   14.9  15.0@03:59 16.8@03:10
05:00  1008.0   5.9   8.6kmh  214 ( SW)   62%  0.0mm   13.9  13.5@04:47 14.9@04:00
06:00  1008.0   7.4  10.1kmh  208 (SSW)   66%  0.0mm   13.5  13.4@05:58 14.7@05:16
07:00  1009.0   7.7  11.9kmh  217 ( SW)   67%  0.0mm   14.0  12.9@06:18 14.0@06:59
08:00  1009.0   8.2  14.8kmh  199 (SSW)   62%  0.0mm   15.4  13.9@07:02 15.4@07:29
09:00  1010.0  10.5  16.9kmh  189 ( S )   51%  0.0mm   17.4  15.3@08:21 17.2@08:59
10:00  1010.0  10.5  19.4kmh  168 (SSE)   43%  0.0mm   19.3  16.9@09:01 19.4@09:54
11:00  1010.0  11.9  26.3kmh  187 ( S )   34%  0.0mm   20.3  19.2@10:22 22.2@10:55
12:00  1010.0  14.2  27.7kmh  190 ( S )   33%  0.0mm   20.6  19.2@11:15 23.6@11:45
13:00  1010.0  15.6  33.1kmh  180 ( S )   27%  0.0mm   22.1  20.6@12:00 23.9@12:48
14:00  1010.0  16.3  28.4kmh  185 ( S )   25%  0.0mm   24.2  21.6@13:02 24.6@13:57
15:00  1010.0  17.5  33.8kmh  218 ( SW)   23%  0.0mm   23.6  23.2@14:59 25.3@14:03
16:00  1010.0  18.6  33.8kmh  203 (SSW)   51%  0.0mm   24.6  23.1@15:56 25.3@15:22
17:00  1010.0  17.6  32.0kmh  187 ( S )   23%  0.0mm   24.2  23.1@16:12 25.2@16:27
18:00  1010.0  16.0  32.4kmh  235 ( SW)   22%  0.0mm   25.0  23.4@17:44 25.0@17:11
19:00  1010.0  16.7  30.6kmh  226 ( SW)   23%  0.0mm   23.6  22.8@18:46 25.1@18:01
20:00  1011.0  16.6  32.0kmh  193 (SSW)   27%  0.0mm   21.7  21.8@19:59 24.0@19:11
21:00  1012.0  10.2  18.0kmh  136 ( SE)   38%  0.0mm   19.3  19.4@20:53 21.7@20:00
22:00  1013.0   7.6  14.0kmh  128 ( SE)   51%  0.0mm   18.4  18.3@21:59 19.3@21:00
23:00  1013.0   5.4  11.9kmh  128 ( SE)   45%  0.0mm   16.7  16.7@22:59 18.4@22:00
00:00  1013.0   5.5  10.1kmh  156 (SSE)   45%  0.0mm   16.1  16.1@23:24 16.7@23:00